Time;durP1;ratioP1;P1;durP2;ratioP2;P2;SDS_P1;SDS_P2;PMS_P1;PMS_P2;Temp;Humidity;BMP_temperature;BMP_pressure;BME280_temperature;BME280_humidity;BME280_pressure;Samples;Min_cycle;Max_cycle;Signal;HPM_P1;HPM_P2
2022/11/14 00:00:37;;;;;;;241.70;64.50;;;;;;;5.15;86.42;99968.89;86062;1287;99524;-76
2022/11/14 00:02:45;;;;;;;226.30;60.10;;;;;;;5.14;86.41;99968.20;86317;1295;22620;-75
2022/11/14 00:04:47;;;;;;;280.80;66.20;;;;;;;5.11;86.35;99966.48;86131;1314;24230;-75
2022/11/14 00:06:49;;;;;;;302.30;63.80;;;;;;;5.08;86.37;99969.30;86059;1296;98460;-75
2022/11/14 00:08:51;;;;;;;331.00;69.40;;;;;;;5.08;86.51;99968.43;86396;1300;22575;-75
2022/11/14 00:10:55;;;;;;;302.30;65.90;;;;;;;5.08;86.50;99964.93;86819;1293;25958;-76
2022/11/14 00:12:57;;;;;;;303.30;63.60;;;;;;;5.06;86.53;99964.96;86289;1286;99495;-77
2022/11/14 00:14:59;;;;;;;278.20;64.80;;;;;;;5.04;86.41;99965.86;85924;1292;24255;-75
2022/11/14 00:17:01;;;;;;;182.90;52.20;;;;;;;5.03;86.36;99966.92;85964;1317;23269;-76
2022/11/14 00:19:03;;;;;;;240.20;64.90;;;;;;;5.00;86.48;99963.29;85946;1300;98586;-75
2022/11/14 00:21:05;;;;;;;447.20;72.60;;;;;;;5.01;86.49;99966.59;85971;1316;22507;-75
2022/11/14 00:23:09;;;;;;;392.10;71.20;;;;;;;5.01;86.58;99966.58;86210;1292;22745;-75
2022/11/14 00:25:11;;;;;;;441.90;72.00;;;;;;;5.02;86.53;99960.83;86001;1291;99695;-75
2022/11/14 00:27:12;;;;;;;362.50;65.30;;;;;;;5.00;86.52;99953.70;86281;1283;22499;-76
2022/11/14 00:29:15;;;;;;;492.90;67.90;;;;;;;4.99;86.59;99951.80;86179;1290;27306;-76
2022/11/14 00:31:17;;;;;;;476.20;67.20;;;;;;;5.00;86.64;99955.96;85944;1293;98615;-76
2022/11/14 00:33:20;;;;;;;473.60;65.10;;;;;;;4.98;86.63;99954.25;86068;1285;23298;-74
2022/11/14 00:35:22;;;;;;;531.20;72.90;;;;;;;4.99;86.72;99954.23;86060;1291;22696;-75
2022/11/14 00:37:24;;;;;;;351.00;54.80;;;;;;;5.00;86.66;99953.35;85886;1286;99542;-75
2022/11/14 00:39:27;;;;;;;500.10;67.90;;;;;;;4.99;86.62;99952.84;86141;1294;25864;-76
2022/11/14 00:41:29;;;;;;;411.40;63.20;;;;;;;4.90;86.82;99938.13;85759;1303;22435;-75
2022/11/14 00:43:31;;;;;;;288.80;57.50;;;;;;;4.99;86.80;99950.41;86109;1291;99779;-74
2022/11/14 00:45:33;;;;;;;165.10;45.60;;;;;;;4.98;86.68;99949.73;86083;1291;22488;-75
2022/11/14 00:47:34;;;;;;;226.00;47.00;;;;;;;4.93;86.69;99946.45;85995;1290;22767;-75
2022/11/14 00:49:36;;;;;;;73.70;31.50;;;;;;;4.89;86.58;99942.31;86141;1312;99921;-75
2022/11/14 00:51:38;;;;;;;195.20;41.40;;;;;;;4.80;86.47;99941.52;86082;1283;22515;-76
2022/11/14 00:53:42;;;;;;;312.10;47.60;;;;;;;4.73;86.47;99951.86;86035;1307;25226;-74
2022/11/14 00:55:44;;;;;;;300.80;45.90;;;;;;;4.68;86.53;99950.16;85966;1298;100136;-74
2022/11/14 00:57:45;;;;;;;252.00;43.40;;;;;;;4.67;86.60;99946.67;86018;1291;22494;-76
2022/11/14 00:59:47;;;;;;;320.20;42.60;;;;;;;4.66;86.70;99953.32;85987;1290;22497;-76
2022/11/14 01:01:49;;;;;;;393.10;51.60;;;;;;;4.66;86.64;99954.02;86018;1284;22489;-75
2022/11/14 01:03:51;;;;;;;297.10;50.90;;;;;;;4.65;86.60;99952.61;85988;1291;25385;-74
2022/11/14 01:05:53;;;;;;;249.50;46.80;;;;;;;4.64;86.67;99951.07;86096;1283;100137;-76
2022/11/14 01:07:55;;;;;;;332.60;46.10;;;;;;;4.64;86.70;99948.28;85975;1283;22703;-75
2022/11/14 01:09:56;;;;;;;100.90;34.30;;;;;;;4.64;86.74;99945.85;85927;1292;24266;-75
2022/11/14 01:11:58;;;;;;;136.40;38.90;;;;;;;4.60;86.65;99939.42;85977;1291;99718;-75
2022/11/14 01:14:00;;;;;;;198.90;41.20;;;;;;;4.56;86.66;99935.98;85879;1287;24118;-76
2022/11/14 01:16:02;;;;;;;120.30;34.10;;;;;;;4.54;86.73;99933.74;85904;1293;23300;-75
2022/11/14 01:18:04;;;;;;;86.50;27.70;;;;;;;4.46;86.71;99935.89;85946;1291;100645;-75
2022/11/14 01:20:06;;;;;;;189.10;38.80;;;;;;;4.49;86.76;99941.09;86026;1291;22494;-75
2022/11/14 01:22:08;;;;;;;172.50;39.20;;;;;;;4.47;86.82;99944.58;86177;1298;26571;-76
2022/11/14 01:24:13;;;;;;;220.70;41.00;;;;;;;4.47;86.79;99941.10;85863;1287;99627;-75
2022/11/14 01:26:14;;;;;;;282.50;43.40;;;;;;;4.47;86.73;99939.72;86341;1298;22871;-75
2022/11/14 01:28:18;;;;;;;147.20;36.90;;;;;;;4.47;86.80;99937.80;86184;1296;22441;-76
2022/11/14 01:30:20;;;;;;;178.70;39.30;;;;;;;4.48;86.77;99934.14;85988;1297;100311;-75
2022/11/14 01:32:22;;;;;;;208.70;40.10;;;;;;;4.48;86.89;99931.87;85926;1292;22863;-75
2022/11/14 01:34:25;;;;;;;225.10;43.50;;;;;;;4.49;86.86;99932.40;86022;1290;22634;-75
2022/11/14 01:36:28;;;;;;;228.30;45.10;;;;;;;4.51;86.88;99931.33;85824;1293;98630;-75
2022/11/14 01:38:30;;;;;;;164.20;40.00;;;;;;;4.53;86.95;99929.23;85932;1298;25391;-75
2022/11/14 01:40:40;;;;;;;70.10;28.90;;;;;;;4.55;87.18;99924.84;86077;1290;22745;-76
2022/11/14 01:43:17;;;;;;;133.70;33.60;;;;;;;4.54;86.91;99923.30;86103;1290;99810;-74
2022/11/14 01:46:01;;;;;;;93.30;29.40;;;;;;;4.53;86.99;99917.91;86090;1291;26542;-76
2022/11/14 01:48:07;;;;;;;115.80;29.50;;;;;;;4.51;86.95;99914.96;85943;1287;99955;-76
2022/11/14 01:50:09;;;;;;;143.80;34.20;;;;;;;4.50;86.88;99917.23;85866;1287;22828;-75
2022/11/14 01:52:20;;;;;;;171.10;31.50;;;;;;;4.52;87.04;99917.05;86014;1291;25411;-75
2022/11/14 01:54:28;;;;;;;131.40;30.20;;;;;;;4.51;87.03;99917.73;86086;1288;100104;-75
2022/11/14 01:56:41;;;;;;;111.40;31.90;;;;;;;4.49;86.94;99917.94;86106;1287;22500;-76
2022/11/14 01:58:48;;;;;;;101.40;31.00;;;;;;;4.48;86.99;99918.66;85988;1291;22700;-76
2022/11/14 02:00:49;;;;;;;103.60;29.40;;;;;;;4.49;86.90;99919.86;86128;1290;100128;-76
2022/11/14 02:02:52;;;;;;;122.30;28.70;;;;;;;4.48;87.00;99920.23;85929;1300;24838;-76
2022/11/14 02:04:59;;;;;;;47.80;21.00;;;;;;;4.44;86.89;99916.08;86052;1299;22472;-77
2022/11/14 02:07:03;;;;;;;96.90;26.30;;;;;;;4.39;86.76;99913.32;85973;1291;99594;-76
2022/11/14 02:09:06;;;;;;;78.50;25.40;;;;;;;4.36;86.89;99912.13;86053;1297;22689;-76
2022/11/14 02:11:12;;;;;;;108.50;25.90;;;;;;;4.35;86.93;99908.85;85858;1309;24329;-77
2022/11/14 02:13:14;;;;;;;132.20;27.80;;;;;;;4.34;87.05;99905.53;85929;1284;100464;-75
2022/11/14 02:15:16;;;;;;;95.30;26.80;;;;;;;4.34;87.05;99902.23;86039;1297;24671;-76
2022/11/14 02:17:19;;;;;;;94.40;29.70;;;;;;;4.31;87.08;99899.98;85989;1291;22482;-76
2022/11/14 02:19:21;;;;;;;139.80;33.50;;;;;;;4.33;87.06;99899.96;85982;1290;100358;-76
2022/11/14 02:21:23;;;;;;;106.90;31.80;;;;;;;4.34;86.95;99900.67;86122;1307;22552;-76
2022/11/14 02:23:29;;;;;;;114.20;32.70;;;;;;;4.34;87.11;99903.97;86003;1291;22624;-76
2022/11/14 02:25:31;;;;;;;156.30;30.30;;;;;;;4.32;87.06;99901.38;85999;1293;98616;-77
2022/11/14 02:27:36;;;;;;;133.20;30.00;;;;;;;4.34;87.21;99906.05;86304;1284;22483;-77
2022/11/14 02:29:41;;;;;;;86.90;27.90;;;;;;;4.32;86.98;99897.20;86221;1291;22887;-77
2022/11/14 02:31:43;;;;;;;106.30;29.30;;;;;;;4.33;87.07;99896.14;86284;1283;99291;-78
2022/11/14 02:33:45;;;;;;;80.60;26.50;;;;;;;4.32;87.15;99893.02;86238;1287;26500;-77
2022/11/14 02:35:47;;;;;;;48.40;22.10;;;;;;;4.31;87.06;99890.42;86198;1290;22424;-76
2022/11/14 02:37:49;;;;;;;52.50;21.20;;;;;;;4.31;87.22;99889.21;86205;1296;24283;-78
2022/11/14 02:39:51;;;;;;;81.10;23.60;;;;;;;4.29;87.11;99889.56;86142;1291;26489;-77
2022/11/14 02:41:53;;;;;;;67.10;22.10;;;;;;;4.30;87.27;99887.82;86178;1298;100601;-77
2022/11/14 02:43:54;;;;;;;68.50;23.80;;;;;;;4.31;87.15;99888.34;86321;1313;22492;-78
2022/11/14 02:45:57;;;;;;;60.00;23.00;;;;;;;4.31;87.18;99887.99;86326;1284;22688;-77
2022/11/14 02:48:01;;;;;;;77.90;22.00;;;;;;;4.32;87.21;99880.16;86070;1292;100117;-78
2022/11/14 02:50:03;;;;;;;69.20;20.70;;;;;;;4.33;87.24;99878.76;86263;1315;22523;-77
2022/11/14 02:52:05;;;;;;;79.20;22.90;;;;;;;4.33;87.35;99879.63;86370;1298;22975;-78
2022/11/14 02:54:07;;;;;;;142.10;26.00;;;;;;;4.33;87.30;99882.92;86354;1298;98925;-77
2022/11/14 02:56:09;;;;;;;98.80;20.50;;;;;;;4.32;87.25;99886.93;86271;1313;22513;-77
2022/11/14 02:58:11;;;;;;;92.20;23.30;;;;;;;4.32;87.17;99885.36;86296;1298;22558;-78
2022/11/14 03:00:13;;;;;;;91.40;26.40;;;;;;;4.33;87.44;99883.10;86271;1291;99880;-78
2022/11/14 03:02:15;;;;;;;91.50;27.60;;;;;;;4.34;87.20;99882.23;86244;1291;22487;-77
2022/11/14 03:04:17;;;;;;;67.80;23.80;;;;;;;4.34;87.34;99876.64;86257;1291;24271;-76
2022/11/14 03:06:19;;;;;;;62.10;24.00;;;;;;;4.35;87.33;99880.30;86229;1297;98619;-77
2022/11/14 03:08:20;;;;;;;65.10;22.80;;;;;;;4.36;87.23;99881.15;86353;1291;25263;-77
2022/11/14 03:10:23;;;;;;;78.70;21.40;;;;;;;4.38;87.19;99884.44;86280;1283;25718;-76
2022/11/14 03:12:25;;;;;;;40.90;17.30;;;;;;;4.37;87.28;99879.06;86086;1291;98363;-77
2022/11/14 03:14:30;;;;;;;38.10;16.90;;;;;;;4.35;87.33;99881.17;86172;1284;23305;-77
2022/11/14 03:16:32;;;;;;;42.90;19.10;;;;;;;4.33;87.35;99879.79;86205;1287;22521;-77
2022/11/14 03:18:34;;;;;;;45.50;20.20;;;;;;;4.33;87.30;99869.52;86142;1291;100056;-78
2022/11/14 03:20:36;;;;;;;51.00;20.00;;;;;;;4.32;87.25;99867.10;86119;1291;23900;-77
2022/11/14 03:22:38;;;;;;;46.80;20.60;;;;;;;4.33;87.40;99862.56;86211;1299;23447;-77
2022/11/14 03:24:40;;;;;;;68.60;23.60;;;;;;;4.33;87.32;99862.73;86111;1287;99640;-76
2022/11/14 03:26:42;;;;;;;74.20;25.10;;;;;;;4.35;87.53;99860.30;86186;1315;24577;-77
2022/11/14 03:28:44;;;;;;;77.90;24.60;;;;;;;4.36;87.38;99859.77;86402;1304;25233;-75
2022/11/14 03:30:45;;;;;;;119.20;24.60;;;;;;;4.37;87.56;99862.02;86271;1300;98565;-77
2022/11/14 03:32:47;;;;;;;81.20;25.80;;;;;;;4.39;87.43;99865.48;86237;1291;22476;-78
2022/11/14 03:34:49;;;;;;;71.10;24.10;;;;;;;4.35;87.55;99852.98;86573;1290;22770;-77
2022/11/14 03:36:51;;;;;;;111.60;25.50;;;;;;;4.44;87.46;99858.30;86583;1283;98265;-77
2022/11/14 03:38:52;;;;;;;82.20;22.10;;;;;;;4.46;87.50;99861.94;86812;1289;22536;-76
2022/11/14 03:40:58;;;;;;;73.60;23.40;;;;;;;4.47;87.48;99861.41;86542;1306;22501;-77
2022/11/14 03:42:59;;;;;;;92.90;24.80;;;;;;;4.48;87.53;99863.65;86388;1291;98311;-78
2022/11/14 03:45:01;;;;;;;51.10;21.30;;;;;;;4.49;87.45;99861.55;86625;1306;22575;-78
2022/11/14 03:47:03;;;;;;;74.30;22.10;;;;;;;4.51;87.44;99861.19;86356;1288;24358;-77
2022/11/14 03:49:05;;;;;;;91.70;23.40;;;;;;;4.53;87.54;99859.96;86097;1292;99509;-77
2022/11/14 03:51:07;;;;;;;68.30;21.70;;;;;;;4.55;87.51;99856.27;86162;1300;23717;-78
2022/11/14 03:53:11;;;;;;;80.90;23.40;;;;;;;4.56;87.48;99856.80;86448;1289;22638;-77
2022/11/14 03:55:13;;;;;;;68.90;21.80;;;;;;;4.56;87.35;99859.92;86527;1298;98402;-77
2022/11/14 03:57:17;;;;;;;36.40;17.00;;;;;;;4.51;87.34;99861.54;86538;1297;23740;-77
2022/11/14 03:59:18;;;;;;;24.70;14.40;;;;;;;4.51;87.27;99866.41;86359;1315;22612;-78
2022/11/14 04:01:20;;;;;;;41.40;17.60;;;;;;;4.46;87.44;99862.28;86180;1291;98371;-78
2022/11/14 04:03:23;;;;;;;49.10;18.20;;;;;;;4.47;87.48;99856.88;86279;1291;25568;-77
2022/11/14 04:05:25;;;;;;;47.80;19.30;;;;;;;4.47;87.51;99850.61;86282;1313;22541;-77
2022/11/14 04:07:27;;;;;;;53.30;18.40;;;;;;;4.48;87.51;99844.69;86133;1287;98640;-77
2022/11/14 04:09:29;;;;;;;50.80;18.00;;;;;;;4.48;87.62;99844.85;86228;1291;23175;-78
2022/11/14 04:11:33;;;;;;;50.00;18.60;;;;;;;4.49;87.42;99838.06;86239;1314;22477;-79
2022/11/14 04:13:35;;;;;;;56.80;21.20;;;;;;;4.50;87.64;99839.79;85956;1286;98559;-78
2022/11/14 04:15:37;;;;;;;64.10;17.70;;;;;;;4.49;87.57;99842.23;86319;1287;25297;-77
2022/11/14 04:17:39;;;;;;;106.40;20.50;;;;;;;4.50;87.51;99840.65;86209;1300;24314;-77
2022/11/14 04:19:41;;;;;;;106.00;19.80;;;;;;;4.50;87.58;99839.62;86118;1299;99310;-77
2022/11/14 04:21:42;;;;;;;48.40;17.40;;;;;;;4.50;87.49;99840.84;86202;1307;24364;-77
2022/11/14 04:23:44;;;;;;;45.50;17.40;;;;;;;4.49;87.51;99841.73;86180;1293;23321;-77
2022/11/14 04:25:46;;;;;;;71.20;19.80;;;;;;;4.49;87.52;99835.80;86231;1291;99443;-77
2022/11/14 04:27:48;;;;;;;82.90;20.30;;;;;;;4.49;87.49;99832.66;86046;1300;22487;-77
2022/11/14 04:29:49;;;;;;;119.60;22.40;;;;;;;4.51;87.58;99829.67;86006;1300;98503;-79
2022/11/14 04:31:51;;;;;;;60.60;18.70;;;;;;;4.52;87.64;99830.20;86123;1293;22611;-77
2022/11/14 04:33:53;;;;;;;67.30;23.10;;;;;;;4.52;87.68;99828.80;86289;1293;22535;-77
2022/11/14 04:35:54;;;;;;;65.30;22.90;;;;;;;4.53;87.62;99826.36;86044;1318;99826;-78
2022/11/14 04:37:56;;;;;;;67.30;21.20;;;;;;;4.53;87.57;99823.74;86491;1302;22440;-78
2022/11/14 04:40:01;;;;;;;106.10;22.30;;;;;;;4.53;87.58;99822.86;86508;1318;25167;-77
2022/11/14 04:42:03;;;;;;;63.90;18.80;;;;;;;4.54;87.56;99826.01;86262;1310;98791;-78
2022/11/14 04:44:04;;;;;;;69.70;19.60;;;;;;;4.53;87.47;99823.58;86304;1283;23194;-77
2022/11/14 04:46:06;;;;;;;120.30;21.10;;;;;;;4.53;87.55;99818.18;86101;1303;22506;-78
2022/11/14 04:48:08;;;;;;;129.10;23.80;;;;;;;4.53;87.65;99813.31;86142;1300;100471;-78
2022/11/14 04:50:10;;;;;;;136.10;24.30;;;;;;;4.55;87.77;99815.71;86182;1293;23016;-77
2022/11/14 04:52:11;;;;;;;107.30;24.50;;;;;;;4.57;87.77;99823.19;86018;1294;22528;-78
2022/11/14 04:54:13;;;;;;;68.00;19.60;;;;;;;4.59;87.72;99830.82;86085;1293;99599;-78
2022/11/14 04:56:15;;;;;;;92.10;26.00;;;;;;;4.59;87.63;99832.73;85881;1296;22620;-77
2022/11/14 04:58:17;;;;;;;82.60;24.30;;;;;;;4.57;87.66;99830.84;86073;1292;22465;-77
2022/11/14 05:00:19;;;;;;;106.70;27.40;;;;;;;4.57;87.48;99828.41;86188;1291;99574;-77
2022/11/14 05:02:20;;;;;;;112.70;26.30;;;;;;;4.55;87.64;99828.60;86283;1287;22572;-77
2022/11/14 05:04:22;;;;;;;153.30;29.40;;;;;;;4.55;87.65;99826.52;85970;1312;22484;-76
2022/11/14 05:06:24;;;;;;;161.40;30.10;;;;;;;4.56;87.73;99825.11;85974;1312;100015;-77
2022/11/14 05:08:26;;;;;;;110.30;29.00;;;;;;;4.57;87.73;99824.93;86248;1291;25879;-78
2022/11/14 05:10:28;;;;;;;103.80;26.50;;;;;;;4.58;87.71;99823.86;86251;1309;22506;-78
2022/11/14 05:12:30;;;;;;;204.30;34.20;;;;;;;4.51;87.79;99804.11;86216;1299;100049;-79
2022/11/14 05:14:32;;;;;;;158.00;32.80;;;;;;;4.61;87.74;99814.45;86042;1296;23782;-78
2022/11/14 05:16:36;;;;;;;146.50;32.60;;;;;;;4.61;87.75;99814.63;86078;1293;22532;-77
2022/11/14 05:18:38;;;;;;;88.00;26.50;;;;;;;4.62;87.84;99811.66;86203;1291;98925;-78
2022/11/14 05:20:40;;;;;;;205.80;28.40;;;;;;;4.63;87.76;99814.09;86182;1307;22523;-78
2022/11/14 05:22:42;;;;;;;82.60;23.70;;;;;;;4.60;87.52;99812.20;86281;1286;22423;-77
2022/11/14 05:24:44;;;;;;;168.90;30.30;;;;;;;4.57;87.67;99810.31;86093;1294;99496;-77
2022/11/14 05:26:46;;;;;;;124.10;27.00;;;;;;;4.58;87.70;99802.12;86414;1288;23842;-78
2022/11/14 05:28:48;;;;;;;133.80;29.90;;;;;;;4.57;87.65;99795.34;86412;1291;22480;-77
2022/11/14 05:30:49;;;;;;;153.50;31.50;;;;;;;4.57;87.74;99794.48;86215;1283;99680;-77
2022/11/14 05:32:51;;;;;;;196.50;30.70;;;;;;;4.59;87.66;99801.23;86120;1291;22455;-77
2022/11/14 05:34:53;;;;;;;203.70;29.10;;;;;;;4.61;87.82;99804.36;86174;1283;27905;-76
2022/11/14 05:36:55;;;;;;;185.60;31.00;;;;;;;4.59;87.82;99797.42;86203;1289;100438;-76
2022/11/14 05:38:57;;;;;;;151.00;28.20;;;;;;;4.63;87.75;99807.13;86046;1315;22787;-76
2022/11/14 05:40:59;;;;;;;141.30;28.90;;;;;;;4.62;87.80;99810.09;86221;1283;24292;-77
2022/11/14 05:43:01;;;;;;;239.90;28.80;;;;;;;4.60;87.80;99813.59;86299;1291;99984;-76
2022/11/14 05:45:04;;;;;;;182.60;30.20;;;;;;;4.59;87.69;99810.63;86445;1314;22437;-77
2022/11/14 05:47:06;;;;;;;183.00;27.30;;;;;;;4.56;87.63;99811.53;86274;1300;25319;-76
2022/11/14 05:49:07;;;;;;;267.10;28.70;;;;;;;4.55;87.78;99806.33;86142;1284;98634;-76
2022/11/14 05:51:12;;;;;;;189.80;32.00;;;;;;;4.55;87.77;99804.42;86061;1300;23114;-76
2022/11/14 05:53:14;;;;;;;185.00;29.80;;;;;;;4.56;87.85;99804.40;86126;1289;22630;-75
2022/11/14 05:55:15;;;;;;;74.90;21.40;;;;;;;4.56;87.81;99801.80;86303;1284;100401;-74
2022/11/14 05:57:17;;;;;;;223.20;31.70;;;;;;;4.52;87.67;99803.40;86194;1286;24300;-74
2022/11/14 05:59:19;;;;;;;256.90;30.90;;;;;;;4.51;87.73;99800.61;86110;1300;23725;-75
2022/11/14 06:01:21;;;;;;;108.40;23.70;;;;;;;4.52;87.73;99799.92;86194;1283;99620;-74
2022/11/14 06:03:23;;;;;;;79.30;22.90;;;;;;;4.51;87.87;99802.71;86154;1292;22723;-74
2022/11/14 06:05:25;;;;;;;163.90;23.80;;;;;;;4.50;87.70;99809.85;86077;1290;22469;-74
2022/11/14 06:07:26;;;;;;;275.10;27.80;;;;;;;4.48;87.83;99807.96;86140;1284;99586;-73
2022/11/14 06:09:28;;;;;;;215.20;31.50;;;;;;;4.47;87.57;99817.90;86190;1283;25209;-74
2022/11/14 06:11:30;;;;;;;213.90;23.80;;;;;;;4.47;87.74;99821.89;86182;1290;23019;-74
2022/11/14 06:13:33;;;;;;;288.20;23.20;;;;;;;4.46;87.81;99823.65;85961;1283;98430;-74
2022/11/14 06:15:34;;;;;;;318.00;27.50;;;;;;;4.44;87.79;99819.85;86086;1289;22693;-74
2022/11/14 06:17:36;;;;;;;174.40;24.30;;;;;;;4.42;87.72;99816.02;86034;1291;23546;-75
2022/11/14 06:19:38;;;;;;;252.20;27.20;;;;;;;4.42;87.75;99822.65;85896;1295;99796;-74
2022/11/14 06:21:40;;;;;;;293.00;29.30;;;;;;;4.40;87.91;99822.49;86068;1284;22556;-75
2022/11/14 06:23:42;;;;;;;308.20;30.10;;;;;;;4.40;87.89;99822.14;86196;1290;22530;-75
2022/11/14 06:25:44;;;;;;;363.60;30.40;;;;;;;4.40;87.79;99821.62;86019;1291;99970;-75
2022/11/14 06:27:46;;;;;;;319.00;29.00;;;;;;;4.40;87.82;99823.89;86104;1290;24548;-74
2022/11/14 06:29:47;;;;;;;267.70;26.70;;;;;;;4.40;87.90;99829.45;86036;1297;99692;-74
2022/11/14 06:31:49;;;;;;;344.50;30.90;;;;;;;4.40;87.85;99832.39;86046;1294;22943;-75
2022/11/14 06:33:51;;;;;;;199.80;27.90;;;;;;;4.38;87.92;99834.34;86115;1291;22475;-75
2022/11/14 06:35:58;;;;;;;227.20;27.00;;;;;;;4.38;87.83;99835.90;85805;1299;99767;-74
2022/11/14 06:37:59;;;;;;;271.10;24.20;;;;;;;4.37;87.74;99829.83;86069;1290;25575;-74
2022/11/14 06:40:01;;;;;;;242.30;27.70;;;;;;;4.36;87.94;99828.27;86107;1284;22486;-74
2022/11/14 06:42:03;;;;;;;263.40;26.50;;;;;;;4.35;87.79;99826.89;85926;1291;100173;-74
2022/11/14 06:44:07;;;;;;;193.30;24.80;;;;;;;4.33;87.85;99831.24;86023;1287;22489;-74
2022/11/14 06:46:11;;;;;;;189.60;24.50;;;;;;;4.33;87.85;99826.39;86230;1285;23406;-73
2022/11/14 06:48:13;;;;;;;120.30;23.40;;;;;;;4.31;87.96;99822.90;86198;1291;99001;-75
2022/11/14 06:50:17;;;;;;;205.00;26.20;;;;;;;4.31;87.87;99824.32;86056;1294;22610;-74
2022/11/14 06:52:19;;;;;;;107.30;22.00;;;;;;;4.30;87.92;99820.67;86136;1303;25328;-75
2022/11/14 06:54:21;;;;;;;157.60;25.30;;;;;;;4.27;87.80;99815.63;86032;1290;100679;-75
2022/11/14 06:56:23;;;;;;;225.20;26.20;;;;;;;4.26;87.96;99818.09;86261;1283;23906;-73
2022/11/14 06:58:29;;;;;;;215.20;24.60;;;;;;;4.29;87.91;99816.31;86135;1291;22484;-75
2022/11/14 07:00:31;;;;;;;136.50;22.40;;;;;;;4.32;88.08;99816.65;86214;1288;99647;-75
2022/11/14 07:02:33;;;;;;;211.00;17.90;;;;;;;4.35;88.16;99811.77;86432;1290;26754;-75
2022/11/14 07:04:34;;;;;;;206.00;21.10;;;;;;;4.35;87.98;99812.10;86114;1294;22730;-74
2022/11/14 07:06:36;;;;;;;294.20;22.60;;;;;;;4.34;88.04;99810.53;86004;1300;100476;-74
2022/11/14 07:08:38;;;;;;;153.90;22.00;;;;;;;4.33;87.92;99805.51;86340;1297;22591;-75
2022/11/14 07:10:39;;;;;;;219.30;22.90;;;;;;;4.31;87.72;99800.98;86041;1293;22599;-74
2022/11/14 07:12:41;;;;;;;256.80;24.60;;;;;;;4.24;87.98;99795.67;86184;1283;99538;-73
2022/11/14 07:14:43;;;;;;;262.70;23.10;;;;;;;4.28;88.05;99801.55;86493;1287;22990;-73
2022/11/14 07:16:45;;;;;;;140.50;19.70;;;;;;;4.26;87.97;99802.42;86580;1298;22606;-74
2022/11/14 07:18:50;;;;;;;118.70;15.90;;;;;;;4.24;88.09;99800.52;86428;1297;98410;-75
2022/11/14 07:21:04;;;;;;;32.30;10.60;;;;;;;4.22;87.92;99800.02;86707;1291;25332;-74
2022/11/14 07:23:06;;;;;;;72.40;14.40;;;;;;;4.21;87.99;99805.08;87062;1313;23409;-73
2022/11/14 07:25:08;;;;;;;56.10;14.80;;;;;;;4.20;88.04;99801.79;86511;1300;99569;-76
2022/11/14 07:27:20;;;;;;;52.50;13.70;;;;;;;4.20;87.99;99805.96;86667;1300;24264;-75
2022/11/14 07:29:22;;;;;;;51.90;14.30;;;;;;;4.20;88.05;99804.23;86509;1297;22483;-73
2022/11/14 07:31:24;;;;;;;105.30;19.00;;;;;;;4.21;88.10;99807.16;86365;1294;98218;-74
2022/11/14 07:33:26;;;;;;;174.00;20.80;;;;;;;4.22;87.95;99805.25;86736;1283;24259;-74
2022/11/14 07:35:28;;;;;;;146.90;19.90;;;;;;;4.24;88.13;99808.70;86577;1298;22814;-75
2022/11/14 07:37:30;;;;;;;59.80;14.60;;;;;;;4.26;88.18;99804.00;86312;1293;98737;-76
2022/11/14 07:39:31;;;;;;;201.40;19.30;;;;;;;4.29;88.18;99809.02;86593;1296;22561;-75
2022/11/14 07:41:33;;;;;;;309.30;20.40;;;;;;;4.30;87.98;99809.19;86548;1281;22599;-75
2022/11/14 07:43:35;;;;;;;148.20;22.40;;;;;;;4.32;88.05;99806.56;86178;1297;257399;-73
2022/11/14 07:45:38;;;;;;;176.40;20.20;;;;;;;4.34;88.10;99809.67;86413;1297;23465;-75
2022/11/14 07:47:43;;;;;;;223.40;19.30;;;;;;;4.38;88.15;99801.80;86631;1298;23869;-74
2022/11/14 07:49:45;;;;;;;284.60;23.40;;;;;;;4.40;88.16;99804.22;86365;1301;99531;-73
2022/11/14 07:51:46;;;;;;;139.20;18.70;;;;;;;4.43;88.21;99805.40;86444;1291;22458;-75
2022/11/14 07:53:51;;;;;;;231.00;21.50;;;;;;;4.43;88.12;99808.17;86305;1313;100684;-74
2022/11/14 07:55:54;;;;;;;179.90;20.90;;;;;;;4.45;88.21;99805.73;86541;1291;22502;-74
2022/11/14 07:57:58;;;;;;;375.00;24.50;;;;;;;4.48;88.26;99810.41;86337;1312;22511;-74
2022/11/14 08:00:00;;;;;;;261.60;22.20;;;;;;;4.49;88.17;99805.53;86367;1301;98620;-74
2022/11/14 08:02:03;;;;;;;147.00;20.70;;;;;;;4.48;88.11;99806.23;86136;1295;25475;-74
2022/11/14 08:04:05;;;;;;;192.60;22.10;;;;;;;4.47;88.12;99797.88;86356;1312;25235;-74
2022/11/14 08:06:10;;;;;;;233.80;21.80;;;;;;;4.46;88.01;99797.35;86146;1291;100224;-75
2022/11/14 08:08:15;;;;;;;172.80;21.00;;;;;;;4.44;87.96;99799.30;85780;1294;22526;-74
2022/11/14 08:10:17;;;;;;;194.10;24.40;;;;;;;4.44;88.09;99797.90;85999;1300;22659;-74
2022/11/14 08:12:19;;;;;;;135.20;24.10;;;;;;;4.44;88.24;99790.24;86064;1291;99583;-74
2022/11/14 08:14:20;;;;;;;51.90;22.20;;;;;;;4.47;88.15;99791.79;86204;1290;22479;-73
2022/11/14 08:16:22;;;;;;;117.10;26.20;;;;;;;4.48;88.06;99787.95;86133;1298;23464;-75
2022/11/14 08:18:24;;;;;;;70.20;27.10;;;;;;;4.48;88.22;99781.51;85989;1291;100262;-74
2022/11/14 08:20:27;;;;;;;120.20;27.80;;;;;;;4.49;88.20;99778.91;86160;1289;22510;-75
2022/11/14 08:22:30;;;;;;;144.20;29.10;;;;;;;4.51;88.13;99773.99;86155;1290;24259;-74
2022/11/14 08:24:31;;;;;;;112.30;32.20;;;;;;;4.52;88.12;99770.33;86162;1313;99510;-75
2022/11/14 08:26:33;;;;;;;141.70;26.00;;;;;;;4.54;88.20;99764.73;86095;1287;25299;-75
2022/11/14 08:28:35;;;;;;;149.00;24.70;;;;;;;4.52;88.16;99755.02;86111;1291;22536;-72
2022/11/14 08:30:37;;;;;;;83.20;21.60;;;;;;;4.60;88.04;99764.33;85959;1297;98592;-74
2022/11/14 08:32:39;;;;;;;84.80;22.80;;;;;;;4.58;88.27;99766.08;86061;1307;22529;-74
2022/11/14 08:34:43;;;;;;;98.90;25.20;;;;;;;4.59;88.11;99763.98;86290;1290;22594;-73
2022/11/14 08:36:47;;;;;;;54.00;20.40;;;;;;;4.61;88.20;99763.45;86020;1290;98436;-75
2022/11/14 08:38:48;;;;;;;73.60;22.00;;;;;;;4.59;88.21;99763.46;86055;1301;22587;-75
2022/11/14 08:40:50;;;;;;;93.80;24.00;;;;;;;4.60;88.08;99757.89;86199;1283;24264;-74
2022/11/14 08:42:58;;;;;;;137.30;25.30;;;;;;;4.60;88.07;99749.88;85794;1315;99750;-74
2022/11/14 08:45:00;;;;;;;95.70;23.80;;;;;;;4.62;88.14;99748.13;86040;1300;24526;-74
2022/11/14 08:47:02;;;;;;;80.50;23.90;;;;;;;4.64;88.22;99748.27;86103;1300;23378;-74
2022/11/14 08:49:04;;;;;;;216.30;30.10;;;;;;;4.64;88.16;99750.36;86123;1291;99530;-74
2022/11/14 08:51:06;;;;;;;216.70;27.80;;;;;;;4.57;88.00;99741.75;85965;1299;22419;-76
2022/11/14 08:53:08;;;;;;;281.00;28.60;;;;;;;4.64;88.16;99750.19;85983;1301;22487;-74
2022/11/14 08:55:10;;;;;;;312.10;27.90;;;;;;;4.66;88.17;99753.30;85929;1297;99887;-74
2022/11/14 08:57:14;;;;;;;349.90;30.50;;;;;;;4.67;88.26;99754.50;86029;1291;24305;-75
2022/11/14 08:59:15;;;;;;;140.30;26.60;;;;;;;4.69;88.10;99756.05;86037;1290;22498;-74
2022/11/14 09:01:17;;;;;;;191.50;29.10;;;;;;;4.70;88.19;99752.73;85971;1290;99621;-75
2022/11/14 09:03:19;;;;;;;98.80;23.70;;;;;;;4.72;88.32;99755.14;86054;1297;22560;-73
2022/11/14 09:05:21;;;;;;;81.40;23.50;;;;;;;4.74;88.28;99753.20;86132;1297;25386;-74
2022/11/14 09:07:22;;;;;;;114.10;25.60;;;;;;;4.74;88.21;99754.94;85909;1301;98326;-74
2022/11/14 09:09:24;;;;;;;53.00;20.70;;;;;;;4.76;88.22;99759.27;86152;1283;22505;-74
2022/11/14 09:11:26;;;;;;;58.20;21.60;;;;;;;4.77;88.13;99760.15;86336;1294;22541;-74
2022/11/14 09:13:28;;;;;;;106.80;22.90;;;;;;;4.73;88.15;99755.81;86339;1298;99554;-74
2022/11/14 09:15:32;;;;;;;72.90;22.10;;;;;;;4.75;88.14;99757.37;86255;1291;22491;-74
2022/11/14 09:17:34;;;;;;;45.20;20.60;;;;;;;4.74;88.08;99759.12;86493;1294;22570;-74
2022/11/14 09:19:36;;;;;;;36.50;18.00;;;;;;;4.67;87.97;99759.55;86242;1298;98904;-75
2022/11/14 09:21:38;;;;;;;47.20;21.20;;;;;;;4.52;87.89;99745.64;86250;1291;22737;-73
2022/11/14 09:23:39;;;;;;;56.20;24.00;;;;;;;4.58;87.87;99764.36;86378;1298;22595;-74
2022/11/14 09:25:41;;;;;;;62.30;24.30;;;;;;;4.58;88.07;99756.52;86288;1286;99880;-74